LJPZ/POW METAR and TAF weather

Enter ICAO airport designator
Station Type Date Time Source
LJPZ METAR 2022/01/26 14:30 UTC NOAA

LJPZ 261430Z 28004KT 260V320 9999 FEW025 07/02 Q1027


Station Type Date Time Source
LJPZ Decoded METAR 2022/01/26 14:30 UTC NOAA

Portoroz, Slovenia (LJPZ) 45-31N 013-34E
Jan 26, 2022 - 09:30 AM EST / 2022.01.26 1430 UTC
Wind: from the W (280 degrees) at 5 MPH (4 KT) (direction variable):0
Visibility: greater than 7 mile(s):0
Sky conditions: mostly clear
Temperature: 44 F (7 C)
Dew Point: 35 F (2 C)
Relative Humidity: 70%
Pressure (altimeter): 30.33 in. Hg (1027 hPa)
ob: LJPZ 261430Z 28004KT 260V320 9999 FEW025 07/02 Q1027
cycle: 14

Station Type Date Time Source
LJPZ TAF 2020/09/27 12:21 UTC NOAA

TAF TAF LJPZ 271100Z 2712/2821 30003KT 9999 FEW050 PROB30
TEMPO 2712/2718 -SHRA SCT040TCU BKN070
BECMG 2718/2720 06012G25KT RA

Example: see airport list